Time;durP1;ratioP1;P1;durP2;ratioP2;P2;SDS_P1;SDS_P2;PMS_P1;PMS_P2;Temp;Humidity;BMP_temperature;BMP_pressure;BME280_temperature;BME280_humidity;BME280_pressure;Samples;Min_cycle;Max_cycle;Signal;HPM_P1;HPM_P2
2024/01/06 00:06:45;;;;;;;1.08;1.05;;;;;;;1.04;89.75;100051.34;15682487;28;19931;-49
2024/01/06 00:14:21;;;;;;;0.17;0.17;;;;;;;1.24;89.29;100056.09;15680822;28;20262;-51
2024/01/06 00:21:55;;;;;;;0.47;0.47;;;;;;;1.35;88.70;100048.81;15665707;28;20079;-49
2024/01/06 00:29:30;;;;;;;1.27;0.65;;;;;;;1.22;90.60;100052.81;15685080;28;20049;-48
2024/01/06 00:37:05;;;;;;;0.47;0.38;;;;;;;1.30;89.22;100057.25;15684319;28;20490;-51
2024/01/06 00:44:40;;;;;;;7.03;0.85;;;;;;;1.04;90.53;100067.19;15663318;28;20037;-49
2024/01/06 00:52:13;;;;;;;3.97;0.98;;;;;;;1.27;89.43;100076.09;15665419;28;20080;-51
2024/01/06 00:59:49;;;;;;;1.25;1.15;;;;;;;0.86;90.04;100073.44;15682702;28;20049;-47
2024/01/06 01:07:25;;;;;;;1.77;1.33;;;;;;;1.04;91.16;100078.59;15681659;28;20136;-48
2024/01/06 01:14:59;;;;;;;0.20;0.20;;;;;;;1.04;90.41;100085.69;15681828;28;20033;-47
2024/01/06 01:22:33;;;;;;;0.32;0.32;;;;;;;0.60;91.21;100041.03;15676992;28;20489;-50
2024/01/06 01:30:08;;;;;;;;;;;;;;;1.14;90.86;100089.81;15659341;28;20463;-49
2024/01/06 01:37:43;;;;;;;0.45;0.45;;;;;;;1.06;90.05;100089.78;15653816;28;19920;-49
2024/01/06 01:45:21;;;;;;;0.80;0.65;;;;;;;1.03;90.06;100103.34;15655741;28;20795;-48
2024/01/06 01:52:55;;;;;;;4.38;2.35;;;;;;;1.04;90.27;100112.94;15669331;28;20486;-51
2024/01/06 02:00:33;;;;;;;0.80;0.80;;;;;;;1.02;90.11;100113.06;15678605;28;20056;-46
2024/01/06 02:08:07;;;;;;;0.52;0.35;;;;;;;1.02;89.06;100123.66;15653742;28;20041;-45
2024/01/06 02:15:42;;;;;;;5.68;2.85;;;;;;;0.97;89.36;100125.13;15659216;28;20494;-45
2024/01/06 02:23:17;;;;;;;0.30;0.30;;;;;;;1.21;89.45;100127.81;15678307;28;20490;-45
2024/01/06 02:30:52;;;;;;;0.10;0.10;;;;;;;0.83;89.65;100129.25;15674413;28;20037;-50
2024/01/06 02:38:27;;;;;;;;;;;;;;;0.69;90.43;100143.91;15674284;28;20136;-47
2024/01/06 02:46:00;;;;;;;5.15;3.25;;;;;;;0.62;91.58;100155.28;15644590;28;19927;-48
2024/01/06 02:53:34;;;;;;;;;;;;;;;0.85;90.15;100152.88;15676855;28;20602;-48
2024/01/06 03:01:08;;;;;;;0.28;0.28;;;;;;;0.64;91.57;100150.66;15674210;28;19921;-48
2024/01/06 03:08:43;;;;;;;;;;;;;;;0.74;90.78;100152.16;15675520;28;20045;-45
2024/01/06 03:16:17;;;;;;;1.60;1.50;;;;;;;0.64;90.60;100159.41;15674680;28;19920;-45
2024/01/06 03:23:52;;;;;;;1.30;1.27;;;;;;;0.65;90.96;100155.78;15674787;28;20037;-48
2024/01/06 03:31:25;;;;;;;0.00;0.00;;;;;;;0.64;90.14;100174.44;15671352;28;20045;-44
2024/01/06 03:39:00;;;;;;;;;;;;;;;0.92;89.30;100170.53;15656889;28;20041;-46
2024/01/06 03:46:36;;;;;;;1.27;1.17;;;;;;;0.71;90.86;100184.19;15664571;28;19929;-45
2024/01/06 03:54:12;;;;;;;0.08;0.08;;;;;;;0.75;91.00;100182.06;15672275;28;20037;-47
2024/01/06 04:01:47;;;;;;;0.52;0.52;;;;;;;0.78;90.24;100194.94;15669317;28;20506;-46
2024/01/06 04:09:23;;;;;;;0.65;0.65;;;;;;;0.72;90.83;100203.50;15673679;28;20045;-46
2024/01/06 04:16:58;;;;;;;0.85;0.70;;;;;;;0.45;91.56;100212.47;15671723;28;20264;-46
2024/01/06 04:24:36;;;;;;;0.65;0.57;;;;;;;0.60;91.19;100213.53;15669933;28;20051;-47
2024/01/06 04:32:10;;;;;;;1.15;1.05;;;;;;;1.15;89.20;100197.19;15672917;28;20120;-45
2024/01/06 04:39:46;;;;;;;0.57;0.57;;;;;;;0.40;91.12;100214.75;15658196;28;20498;-47
2024/01/06 04:47:19;;;;;;;0.28;0.28;;;;;;;0.52;91.33;100218.78;15679457;28;20045;-45
2024/01/06 04:54:54;;;;;;;1.52;1.33;;;;;;;0.72;90.89;100232.56;15654809;28;20065;-46
2024/01/06 05:02:29;;;;;;;0.85;0.85;;;;;;;0.95;90.06;100243.38;15660496;28;20065;-43
2024/01/06 05:10:04;;;;;;;2.00;1.88;;;;;;;0.65;90.66;100223.59;15683233;28;20049;-50
2024/01/06 05:17:38;;;;;;;1.13;0.82;;;;;;;0.77;90.35;100238.19;15678876;28;20049;-47
2024/01/06 05:25:14;;;;;;;1.77;1.65;;;;;;;0.62;91.12;100242.44;15664125;28;20115;-46
2024/01/06 05:32:47;;;;;;;6.88;1.63;;;;;;;0.42;91.37;100255.00;15680761;28;20047;-48
2024/01/06 05:40:25;;;;;;;0.73;0.73;;;;;;;0.40;92.07;100271.03;15680395;28;20588;-48
2024/01/06 05:47:58;;;;;;;2.10;1.83;;;;;;;0.60;91.04;100282.19;15677525;28;20383;-44
2024/01/06 05:55:35;;;;;;;0.15;0.15;;;;;;;0.43;90.72;100297.13;15644780;28;20521;-46
2024/01/06 06:03:09;;;;;;;0.60;0.60;;;;;;;0.74;90.17;100313.28;15678761;28;20037;-46
2024/01/06 06:10:59;;;;;;;0.03;0.03;;;;;;;0.67;90.33;100316.75;15679342;28;20132;-48
2024/01/06 06:18:34;;;;;;;1.65;1.35;;;;;;;0.65;90.70;100316.03;15658047;28;20087;-47
2024/01/06 06:26:08;;;;;;;;;;;;;;;0.56;90.81;100330.19;15675893;28;20128;-48
2024/01/06 06:33:42;;;;;;;0.35;0.35;;;;;;;0.29;91.73;100347.84;15675364;28;20350;-44
2024/01/06 06:41:17;;;;;;;2.40;1.08;;;;;;;0.50;90.58;100345.66;15658582;28;20056;-49
2024/01/06 06:48:51;;;;;;;1.30;1.23;;;;;;;0.38;90.31;100357.47;15676246;28;20575;-48
2024/01/06 06:56:26;;;;;;;2.53;2.42;;;;;;;0.89;89.67;100384.91;15675711;28;20080;-48
2024/01/06 07:04:00;;;;;;;1.13;1.10;;;;;;;0.40;89.84;100403.03;15637535;22;20061;-74
2024/01/06 07:11:34;;;;;;;3.08;1.40;;;;;;;0.58;89.94;100415.38;15606133;28;20041;-73
2024/01/06 07:19:08;;;;;;;1.05;0.77;;;;;;;0.29;89.81;100413.00;15607657;28;20107;-73
2024/01/06 07:26:43;;;;;;;1.05;0.68;;;;;;;0.38;91.00;100441.13;15589454;28;20148;-73
2024/01/06 07:34:16;;;;;;;0.93;0.90;;;;;;;0.46;89.97;100442.00;15605456;28;20542;-73
2024/01/06 07:41:52;;;;;;;0.55;0.55;;;;;;;0.26;90.26;100453.72;15586160;28;20038;-74
2024/01/06 07:49:25;;;;;;;1.40;1.30;;;;;;;0.36;89.74;100470.31;15586469;28;20057;-75
2024/01/06 07:57:02;;;;;;;0.60;0.60;;;;;;;0.40;89.30;100478.75;15605514;28;20076;-74
2024/01/06 08:04:39;;;;;;;0.95;0.80;;;;;;;0.23;90.18;100493.59;15603661;28;20099;-74
2024/01/06 08:12:13;;;;;;;;;;;;;;;0.19;90.20;100494.91;15600821;28;20042;-75
2024/01/06 08:19:47;;;;;;;1.95;1.83;;;;;;;0.13;90.32;100500.75;15596743;28;19956;-74
2024/01/06 08:27:23;;;;;;;0.20;0.20;;;;;;;-0.01;91.46;100518.75;15598015;28;20055;-74
2024/01/06 08:34:57;;;;;;;0.13;0.13;;;;;;;-0.04;92.06;100545.44;15609609;28;20091;-75
2024/01/06 08:42:31;;;;;;;;;;;;;;;0.18;90.71;100546.84;15614636;28;20052;-74
2024/01/06 08:50:05;;;;;;;0.10;0.10;;;;;;;0.00;91.33;100546.00;15612534;28;19921;-74
2024/01/06 08:57:41;;;;;;;2.38;2.17;;;;;;;-0.13;92.64;100556.88;15612818;28;20050;-74
2024/01/06 09:05:16;;;;;;;0.47;0.47;;;;;;;0.05;92.02;100572.75;15596644;28;20073;-74
2024/01/06 09:12:50;;;;;;;6.63;2.97;;;;;;;-0.02;92.24;100588.31;15596175;28;20407;-74
2024/01/06 09:20:24;;;;;;;4.20;2.85;;;;;;;-0.06;91.96;100599.31;15614266;28;20042;-75
2024/01/06 09:28:00;;;;;;;0.20;0.20;;;;;;;-0.11;92.11;100615.56;15591794;28;20045;-73
2024/01/06 09:35:34;;;;;;;3.05;2.17;;;;;;;-0.12;92.25;100616.56;15595675;28;20408;-74
2024/01/06 09:43:09;;;;;;;3.70;2.67;;;;;;;0.21;90.63;100620.44;15612123;28;20034;-74
2024/01/06 09:50:44;;;;;;;2.65;2.45;;;;;;;-0.31;92.38;100622.72;15613283;28;20479;-74
2024/01/06 09:58:19;;;;;;;0.60;0.60;;;;;;;-0.33;91.94;100637.00;15612887;28;20045;-74
2024/01/06 10:05:53;;;;;;;1.42;1.15;;;;;;;-0.56;92.47;100640.00;15595038;28;20041;-73
2024/01/06 10:13:28;;;;;;;0.28;0.28;;;;;;;-0.41;92.44;100663.28;15609763;28;20046;-74
2024/01/06 10:21:04;;;;;;;0.05;0.05;;;;;;;-0.38;92.31;100657.72;15624036;22;20080;-43
2024/01/06 10:28:39;;;;;;;4.07;1.55;;;;;;;-0.31;91.65;100657.00;15656311;28;20052;-45
2024/01/06 10:36:14;;;;;;;0.10;0.10;;;;;;;-0.46;92.70;100660.25;15628513;28;20076;-45
2024/01/06 10:43:51;;;;;;;0.47;0.47;;;;;;;-0.49;91.47;100642.06;15648814;28;20478;-47
2024/01/06 10:51:27;;;;;;;2.13;1.95;;;;;;;-0.60;92.02;100661.50;15648157;28;20033;-47
2024/01/06 10:59:04;;;;;;;1.75;0.90;;;;;;;-0.69;91.65;100673.72;15652596;28;20432;-45
2024/01/06 11:06:39;;;;;;;0.50;0.50;;;;;;;-0.69;91.32;100673.72;15648544;28;20363;-43
2024/01/06 11:14:22;;;;;;;2.38;2.17;;;;;;;-0.57;90.48;100679.66;15634063;28;20060;-49
2024/01/06 11:21:56;;;;;;;2.55;1.17;;;;;;;-0.63;90.53;100672.31;15620595;28;20107;-45
2024/01/06 11:29:32;;;;;;;0.10;0.10;;;;;;;-0.68;90.50;100675.38;15656895;28;20056;-46
2024/01/06 11:37:09;;;;;;;0.25;0.25;;;;;;;-0.70;90.16;100679.09;15622529;28;20119;-44
2024/01/06 11:44:46;;;;;;;1.80;1.55;;;;;;;-0.70;89.49;100661.50;15639664;28;20055;-52
2024/01/06 11:52:25;;;;;;;0.50;0.50;;;;;;;-0.61;88.88;100673.81;15658185;28;20516;-47
2024/01/06 12:00:04;;;;;;;0.22;0.22;;;;;;;-0.62;88.98;100677.44;15645681;28;20046;-50
2024/01/06 12:07:41;;;;;;;0.10;0.10;;;;;;;-0.72;88.56;100667.88;15658016;28;20493;-45
2024/01/06 12:15:17;;;;;;;0.55;0.55;;;;;;;-0.50;87.68;100680.78;15656451;28;20042;-47
2024/01/06 12:22:51;;;;;;;0.35;0.35;;;;;;;-0.59;87.76;100677.16;15646713;28;20060;-44
2024/01/06 12:30:26;;;;;;;0.43;0.43;;;;;;;-0.58;87.28;100689.38;15665347;28;20075;-51
2024/01/06 12:37:59;;;;;;;1.38;1.33;;;;;;;-0.52;87.17;100696.72;15667870;28;20137;-46
2024/01/06 12:45:36;;;;;;;0.13;0.13;;;;;;;-0.51;85.94;100716.03;15649153;28;20136;-48
2024/01/06 12:53:11;;;;;;;0.22;0.22;;;;;;;-0.46;85.97;100726.16;15665310;28;20267;-48
2024/01/06 13:00:46;;;;;;;1.00;1.00;;;;;;;-0.64;86.38;100731.28;15657303;28;20382;-50
2024/01/06 13:08:21;;;;;;;1.10;0.82;;;;;;;-0.49;86.03;100732.53;15656184;28;20053;-44
2024/01/06 13:15:57;;;;;;;1.58;0.68;;;;;;;-0.61;85.34;100745.00;15657377;28;20045;-53
2024/01/06 13:23:30;;;;;;;1.35;0.50;;;;;;;-0.47;85.15;100746.38;15646382;28;20135;-50
2024/01/06 13:31:05;;;;;;;0.08;0.08;;;;;;;-0.67;85.41;100757.91;15660847;28;20036;-47
2024/01/06 13:38:38;;;;;;;4.07;1.25;;;;;;;-0.58;85.15;100781.63;15655942;28;20068;-50
2024/01/06 13:46:15;;;;;;;1.50;1.40;;;;;;;-0.84;85.26;100789.22;15645654;28;20052;-48
2024/01/06 13:53:48;;;;;;;0.40;0.40;;;;;;;-0.94;86.01;100790.16;15625134;28;20045;-47
2024/01/06 14:01:33;;;;;;;0.95;0.95;;;;;;;-0.86;85.61;100793.78;15643245;28;20068;-44
2024/01/06 14:09:13;;;;;;;0.15;0.15;;;;;;;-0.85;85.51;100795.44;15625706;28;20569;-46
2024/01/06 14:16:47;;;;;;;;;;;;;;;-0.78;85.71;100811.56;15616502;22;20036;-46
2024/01/06 14:24:23;;;;;;;0.10;0.10;;;;;;;-0.65;84.35;100813.97;15670834;28;19927;-46
2024/01/06 14:31:59;;;;;;;0.10;0.10;;;;;;;-0.72;84.54;100832.09;15667442;28;20405;-48
2024/01/06 14:39:36;;;;;;;0.65;0.65;;;;;;;-0.99;85.61;100835.34;15667990;28;20052;-46
2024/01/06 14:47:12;;;;;;;0.00;0.00;;;;;;;-0.73;84.70;100842.78;15673346;28;20048;-47
2024/01/06 14:54:49;;;;;;;2.92;2.72;;;;;;;-0.97;85.35;100862.41;15660370;28;20041;-47
2024/01/06 15:02:25;;;;;;;2.95;2.33;;;;;;;-0.95;85.63;100872.81;15667562;28;20493;-48
2024/01/06 15:10:00;;;;;;;0.35;0.35;;;;;;;-0.87;84.51;100851.91;15667876;28;20079;-48
2024/01/06 15:17:36;;;;;;;0.50;0.50;;;;;;;-0.88;84.67;100882.69;15656978;28;20101;-48
2024/01/06 15:25:10;;;;;;;1.88;1.75;;;;;;;-0.90;84.93;100895.16;15673642;28;20045;-47
2024/01/06 15:32:46;;;;;;;0.93;0.88;;;;;;;-0.89;85.27;100904.72;15673864;28;20056;-50
2024/01/06 15:40:19;;;;;;;0.30;0.30;;;;;;;-1.00;84.73;100906.63;15672769;28;20454;-47
2024/01/06 15:47:56;;;;;;;0.40;0.40;;;;;;;-0.93;84.62;100915.66;15655188;28;20095;-47
2024/01/06 15:55:37;;;;;;;0.10;0.10;;;;;;;-0.95;84.18;100925.50;15673032;28;20130;-50
2024/01/06 16:03:13;;;;;;;0.00;0.00;;;;;;;-1.09;84.65;100926.66;15672459;28;20056;-46
2024/01/06 16:10:49;;;;;;;0.10;0.10;;;;;;;-0.74;83.27;100941.28;15672712;28;20072;-49
2024/01/06 16:18:24;;;;;;;0.13;0.13;;;;;;;-0.89;82.87;100946.03;15672087;28;20145;-51
2024/01/06 16:25:58;;;;;;;0.45;0.45;;;;;;;-0.94;82.93;100956.13;15664369;28;20400;-46
2024/01/06 16:33:35;;;;;;;0.10;0.10;;;;;;;-0.96;83.00;100956.28;15672814;28;20059;-51
2024/01/06 16:41:09;;;;;;;0.85;0.85;;;;;;;-0.67;82.31;100974.03;15683697;28;20069;-46
2024/01/06 16:48:45;;;;;;;0.20;0.20;;;;;;;-0.60;82.25;100972.56;15680100;28;20049;-52
2024/01/06 16:56:19;;;;;;;0.15;0.15;;;;;;;-0.81;81.98;100983.13;15662123;28;20057;-49
2024/01/06 17:03:55;;;;;;;0.40;0.40;;;;;;;-1.09;82.67;100992.53;15682771;28;20048;-47
2024/01/06 17:11:31;;;;;;;0.30;0.30;;;;;;;-0.87;82.04;100996.81;15679516;28;20068;-47
2024/01/06 17:19:08;;;;;;;0.40;0.40;;;;;;;-1.13;81.40;100999.84;15660475;28;20095;-50
2024/01/06 17:26:43;;;;;;;0.00;0.00;;;;;;;-1.20;81.49;101017.13;15661517;28;20558;-47
2024/01/06 17:34:18;;;;;;;0.10;0.10;;;;;;;-1.01;81.08;101021.69;15663507;28;20082;-47
2024/01/06 17:41:52;;;;;;;0.88;0.75;;;;;;;-1.32;81.77;101036.56;15680495;28;20067;-48
2024/01/06 17:49:30;;;;;;;1.27;1.17;;;;;;;-1.39;82.67;101041.50;15659490;28;20037;-48
2024/01/06 17:57:04;;;;;;;0.20;0.20;;;;;;;-1.25;83.57;101052.72;15676104;28;20033;-46
2024/01/06 18:04:40;;;;;;;0.00;0.00;;;;;;;-1.26;82.42;101059.75;15674050;28;20445;-49
2024/01/06 18:12:15;;;;;;;4.13;2.55;;;;;;;-1.48;83.73;101070.38;15674050;28;20041;-48
2024/01/06 18:19:49;;;;;;;0.00;0.00;;;;;;;-1.27;82.46;101068.63;15661301;28;20041;-47
2024/01/06 18:27:24;;;;;;;0.00;0.00;;;;;;;-1.32;80.38;101083.97;15672387;28;20037;-45
2024/01/06 18:34:59;;;;;;;0.10;0.10;;;;;;;-1.15;79.88;101088.69;15670636;28;20140;-46
2024/01/06 18:42:33;;;;;;;0.00;0.00;;;;;;;-1.14;78.68;101097.44;15677242;28;20410;-51
2024/01/06 18:50:09;;;;;;;0.28;0.22;;;;;;;-1.11;77.54;101100.66;15654471;28;20037;-47
2024/01/06 18:57:42;;;;;;;0.25;0.25;;;;;;;-0.98;77.57;101111.03;15667616;28;20098;-47
2024/01/06 19:05:19;;;;;;;0.00;0.00;;;;;;;-1.22;78.34;101102.47;15662115;28;20029;-50
2024/01/06 19:12:52;;;;;;;0.00;0.00;;;;;;;-1.23;78.91;101133.25;15664743;28;20076;-47
2024/01/06 19:20:29;;;;;;;0.65;0.65;;;;;;;-1.20;78.90;101133.00;15647552;28;20131;-48
2024/01/06 19:28:02;;;;;;;1.65;1.27;;;;;;;-1.44;79.33;101141.09;15664382;28;20044;-46
2024/01/06 19:35:38;;;;;;;0.00;0.00;;;;;;;-1.29;79.62;101149.56;15630220;28;20080;-46
2024/01/06 19:43:12;;;;;;;0.50;0.50;;;;;;;-1.26;79.41;101166.88;15644227;28;20401;-46
2024/01/06 19:50:47;;;;;;;0.00;0.00;;;;;;;-1.42;80.66;101164.66;15660418;28;20049;-48
2024/01/06 19:58:22;;;;;;;0.52;0.43;;;;;;;-1.62;81.47;101169.72;15660166;28;20123;-51
2024/01/06 20:05:57;;;;;;;0.00;0.00;;;;;;;-1.57;80.55;101183.34;15660973;28;20107;-49
2024/01/06 20:13:31;;;;;;;0.75;0.47;;;;;;;-1.50;79.74;101172.31;15671630;28;20052;-47
2024/01/06 20:21:06;;;;;;;3.05;2.40;;;;;;;-1.50;78.69;101188.13;15674665;28;20041;-51
2024/01/06 20:28:39;;;;;;;0.00;0.00;;;;;;;-1.32;78.02;101190.13;15653602;28;20596;-49
2024/01/06 20:36:19;;;;;;;5.00;1.55;;;;;;;-1.38;77.11;101195.88;15671344;28;20509;-48
2024/01/06 20:43:52;;;;;;;0.00;0.00;;;;;;;-1.28;77.45;101196.00;15673668;28;20072;-54
2024/01/06 20:51:29;;;;;;;0.00;0.00;;;;;;;-1.53;77.67;101205.00;15650357;28;20046;-45
2024/01/06 20:59:04;;;;;;;0.00;0.00;;;;;;;-1.40;77.46;101196.94;15594214;28;20029;-49
2024/01/06 21:06:39;;;;;;;0.05;0.05;;;;;;;-1.36;76.94;101211.56;15658180;28;20122;-49
2024/01/06 21:14:12;;;;;;;0.10;0.10;;;;;;;-1.53;77.19;101219.97;15671093;28;20052;-47
2024/01/06 21:21:47;;;;;;;0.00;0.00;;;;;;;-1.72;77.92;101218.78;15669693;28;20135;-47
2024/01/06 21:29:22;;;;;;;0.00;0.00;;;;;;;-1.61;77.95;101228.44;15669098;28;20472;-50
2024/01/06 21:36:57;;;;;;;0.00;0.00;;;;;;;-1.96;79.81;101229.38;15648333;28;20041;-46
2024/01/06 21:44:30;;;;;;;0.65;0.65;;;;;;;-1.88;80.21;101247.19;15663646;28;20050;-46
2024/01/06 21:52:07;;;;;;;0.10;0.10;;;;;;;-1.46;79.15;101240.41;15665744;28;20047;-49
2024/01/06 21:59:41;;;;;;;0.10;0.10;;;;;;;-1.77;78.04;101249.00;15658885;28;20046;-46
2024/01/06 22:07:17;;;;;;;0.00;0.00;;;;;;;-1.72;76.75;101257.41;15662459;28;20502;-48
2024/01/06 22:14:52;;;;;;;0.00;0.00;;;;;;;-1.59;75.29;101251.03;15676955;28;20151;-48
2024/01/06 22:22:29;;;;;;;4.38;0.85;;;;;;;-1.62;74.04;101259.19;15672730;28;20149;-46
2024/01/06 22:30:04;;;;;;;0.00;0.00;;;;;;;-1.64;72.93;101262.91;15672828;28;20098;-48
2024/01/06 22:37:39;;;;;;;0.00;0.00;;;;;;;-1.69;71.57;101276.41;15674860;28;20086;-45
2024/01/06 22:45:12;;;;;;;0.00;0.00;;;;;;;-1.80;71.77;101279.03;15624485;28;20028;-46
2024/01/06 22:52:47;;;;;;;0.00;0.00;;;;;;;-1.75;71.41;101283.94;15677182;28;20557;-45
2024/01/06 23:00:27;;;;;;;0.00;0.00;;;;;;;-1.68;70.21;101296.53;15675550;28;20672;-45
2024/01/06 23:08:03;;;;;;;0.10;0.10;;;;;;;-1.68;69.34;101296.53;15637200;28;20124;-45
2024/01/06 23:15:37;;;;;;;0.00;0.00;;;;;;;-1.82;69.52;101299.34;15668500;28;20049;-46
2024/01/06 23:23:12;;;;;;;0.00;0.00;;;;;;;-1.56;68.75;101300.00;15675094;28;20125;-46
2024/01/06 23:30:47;;;;;;;0.35;0.32;;;;;;;-1.40;67.82;101312.81;15674463;28;20045;-48
2024/01/06 23:38:22;;;;;;;0.47;0.25;;;;;;;-1.76;68.77;101314.69;15656638;28;20540;-49
2024/01/06 23:45:58;;;;;;;0.13;0.13;;;;;;;-1.72;68.32;101320.56;15668748;28;20037;-46
2024/01/06 23:53:35;;;;;;;0.00;0.00;;;;;;;-1.60;67.89;101325.72;15672812;28;20052;-49
